sensor_id;sensor_type;location;lat;lon;timestamp;pressure;altitude;pressure_sealevel;temperature;humidity
63006;BME280;53704;52.532;6.426;2024-02-21T00:00:55;102082.91;;;7.94;100.00
63006;BME280;53704;52.532;6.426;2024-02-21T00:03:21;102079.72;;;7.89;100.00
63006;BME280;53704;52.532;6.426;2024-02-21T00:05:46;102075.00;;;7.93;100.00
63006;BME280;53704;52.532;6.426;2024-02-21T00:08:12;102069.13;;;7.88;100.00
63006;BME280;53704;52.532;6.426;2024-02-21T00:10:37;102070.88;;;8.00;100.00
63006;BME280;53704;52.532;6.426;2024-02-21T00:13:03;102068.53;;;7.95;100.00
63006;BME280;53704;52.532;6.426;2024-02-21T00:15:29;102071.72;;;8.01;100.00
63006;BME280;53704;52.532;6.426;2024-02-21T00:17:54;102080.13;;;7.96;100.00
63006;BME280;53704;52.532;6.426;2024-02-21T00:20:20;102079.03;;;7.99;100.00
63006;BME280;53704;52.532;6.426;2024-02-21T00:22:45;102074.16;;;7.92;100.00
63006;BME280;53704;52.532;6.426;2024-02-21T00:25:11;102078.63;;;7.92;100.00
63006;BME280;53704;52.532;6.426;2024-02-21T00:27:37;102073.78;;;7.97;100.00
63006;BME280;53704;52.532;6.426;2024-02-21T00:30:04;102066.81;;;7.94;100.00
63006;BME280;53704;52.532;6.426;2024-02-21T00:32:30;102067.66;;;7.95;100.00
63006;BME280;53704;52.532;6.426;2024-02-21T00:34:57;102063.53;;;7.91;100.00
63006;BME280;53704;52.532;6.426;2024-02-21T00:37:24;102059.75;;;7.93;100.00
63006;BME280;53704;52.532;6.426;2024-02-21T00:39:50;102058.06;;;7.92;100.00
63006;BME280;53704;52.532;6.426;2024-02-21T00:42:17;102054.50;;;7.92;100.00
63006;BME280;53704;52.532;6.426;2024-02-21T00:44:43;102049.16;;;8.03;100.00
63006;BME280;53704;52.532;6.426;2024-02-21T00:47:10;102041.72;;;7.95;100.00
63006;BME280;53704;52.532;6.426;2024-02-21T00:49:35;102038.28;;;7.93;100.00
63006;BME280;53704;52.532;6.426;2024-02-21T00:52:01;102043.88;;;7.90;100.00
63006;BME280;53704;52.532;6.426;2024-02-21T00:54:26;102033.47;;;7.99;100.00
63006;BME280;53704;52.532;6.426;2024-02-21T00:56:51;102027.56;;;7.93;100.00
63006;BME280;53704;52.532;6.426;2024-02-21T00:59:18;102025.16;;;8.02;100.00
63006;BME280;53704;52.532;6.426;2024-02-21T01:01:43;102014.28;;;7.92;100.00
63006;BME280;53704;52.532;6.426;2024-02-21T01:04:09;101987.38;;;8.05;100.00
63006;BME280;53704;52.532;6.426;2024-02-21T01:06:35;102004.91;;;7.97;100.00
63006;BME280;53704;52.532;6.426;2024-02-21T01:09:00;101999.22;;;8.02;100.00
63006;BME280;53704;52.532;6.426;2024-02-21T01:11:26;101990.16;;;7.92;100.00
63006;BME280;53704;52.532;6.426;2024-02-21T01:13:52;101997.94;;;7.95;100.00
63006;BME280;53704;52.532;6.426;2024-02-21T01:16:18;101983.69;;;7.94;100.00
63006;BME280;53704;52.532;6.426;2024-02-21T01:18:43;101993.69;;;7.92;100.00
63006;BME280;53704;52.532;6.426;2024-02-21T01:21:10;102001.88;;;7.91;100.00
63006;BME280;53704;52.532;6.426;2024-02-21T01:23:36;102009.78;;;7.92;100.00
63006;BME280;53704;52.532;6.426;2024-02-21T01:26:05;102005.38;;;7.91;100.00
63006;BME280;53704;52.532;6.426;2024-02-21T01:28:34;101992.09;;;7.90;100.00
63006;BME280;53704;52.532;6.426;2024-02-21T01:30:59;101987.22;;;7.95;100.00
63006;BME280;53704;52.532;6.426;2024-02-21T01:33:25;101982.22;;;7.90;100.00
63006;BME280;53704;52.532;6.426;2024-02-21T01:35:52;101979.81;;;7.99;100.00
63006;BME280;53704;52.532;6.426;2024-02-21T01:38:20;101976.50;;;7.95;100.00
63006;BME280;53704;52.532;6.426;2024-02-21T01:40:50;101968.47;;;7.95;100.00
63006;BME280;53704;52.532;6.426;2024-02-21T01:43:18;101968.81;;;7.90;100.00
63006;BME280;53704;52.532;6.426;2024-02-21T01:45:51;101957.72;;;7.84;100.00
63006;BME280;53704;52.532;6.426;2024-02-21T01:48:18;101946.88;;;7.85;100.00
63006;BME280;53704;52.532;6.426;2024-02-21T01:50:47;101957.25;;;7.90;100.00
63006;BME280;53704;52.532;6.426;2024-02-21T01:53:19;101953.84;;;7.88;100.00
63006;BME280;53704;52.532;6.426;2024-02-21T01:55:45;101957.59;;;7.85;100.00
63006;BME280;53704;52.532;6.426;2024-02-21T01:58:14;101951.88;;;7.90;100.00
63006;BME280;53704;52.532;6.426;2024-02-21T02:00:43;101942.88;;;7.91;100.00
63006;BME280;53704;52.532;6.426;2024-02-21T02:03:13;101944.56;;;7.92;100.00
63006;BME280;53704;52.532;6.426;2024-02-21T02:05:45;101937.09;;;7.84;100.00
63006;BME280;53704;52.532;6.426;2024-02-21T02:08:16;101945.91;;;7.86;100.00
63006;BME280;53704;52.532;6.426;2024-02-21T02:10:42;101948.00;;;7.94;100.00
63006;BME280;53704;52.532;6.426;2024-02-21T02:13:08;101950.03;;;7.90;100.00
63006;BME280;53704;52.532;6.426;2024-02-21T02:15:48;101947.72;;;7.86;100.00
63006;BME280;53704;52.532;6.426;2024-02-21T02:18:14;101945.16;;;7.84;100.00
63006;BME280;53704;52.532;6.426;2024-02-21T02:20:40;101939.84;;;7.95;100.00
63006;BME280;53704;52.532;6.426;2024-02-21T02:25:45;101932.50;;;7.86;100.00
63006;BME280;53704;52.532;6.426;2024-02-21T02:28:14;101929.69;;;7.88;100.00
63006;BME280;53704;52.532;6.426;2024-02-21T02:30:40;101934.72;;;7.92;100.00
63006;BME280;53704;52.532;6.426;2024-02-21T02:33:05;101931.28;;;7.90;100.00
63006;BME280;53704;52.532;6.426;2024-02-21T02:35:32;101938.84;;;7.96;100.00
63006;BME280;53704;52.532;6.426;2024-02-21T02:37:57;101932.63;;;7.85;100.00
63006;BME280;53704;52.532;6.426;2024-02-21T02:40:24;101942.34;;;7.86;100.00
63006;BME280;53704;52.532;6.426;2024-02-21T02:42:50;101943.22;;;7.86;100.00
63006;BME280;53704;52.532;6.426;2024-02-21T02:45:16;101943.94;;;7.88;100.00
63006;BME280;53704;52.532;6.426;2024-02-21T02:47:45;101943.22;;;7.86;100.00
63006;BME280;53704;52.532;6.426;2024-02-21T02:50:11;101943.09;;;7.76;100.00
63006;BME280;53704;52.532;6.426;2024-02-21T02:52:37;101951.50;;;7.83;100.00
63006;BME280;53704;52.532;6.426;2024-02-21T02:55:06;101937.09;;;7.84;100.00
63006;BME280;53704;52.532;6.426;2024-02-21T02:57:32;101939.88;;;7.71;100.00
63006;BME280;53704;52.532;6.426;2024-02-21T02:59:58;101935.50;;;7.70;100.00
63006;BME280;53704;52.532;6.426;2024-02-21T03:02:23;101934.41;;;7.73;100.00
63006;BME280;53704;52.532;6.426;2024-02-21T03:04:49;101932.19;;;7.67;100.00
63006;BME280;53704;52.532;6.426;2024-02-21T03:07:19;101917.84;;;7.68;100.00
63006;BME280;53704;52.532;6.426;2024-02-21T03:09:45;101921.75;;;7.75;100.00
63006;BME280;53704;52.532;6.426;2024-02-21T03:12:10;101925.16;;;7.77;100.00
63006;BME280;53704;52.532;6.426;2024-02-21T03:14:36;101918.09;;;7.76;100.00
63006;BME280;53704;52.532;6.426;2024-02-21T03:17:03;101914.44;;;7.77;100.00
63006;BME280;53704;52.532;6.426;2024-02-21T03:19:29;101900.78;;;7.69;100.00
63006;BME280;53704;52.532;6.426;2024-02-21T03:21:55;101897.66;;;7.86;100.00
63006;BME280;53704;52.532;6.426;2024-02-21T03:24:21;101895.56;;;7.78;100.00
63006;BME280;53704;52.532;6.426;2024-02-21T03:26:47;101898.47;;;7.75;100.00
63006;BME280;53704;52.532;6.426;2024-02-21T03:29:15;101892.06;;;7.89;100.00
63006;BME280;53704;52.532;6.426;2024-02-21T03:31:41;101880.44;;;7.89;100.00
63006;BME280;53704;52.532;6.426;2024-02-21T03:34:06;101880.78;;;7.73;100.00
63006;BME280;53704;52.532;6.426;2024-02-21T03:36:32;101870.72;;;7.76;100.00
63006;BME280;53704;52.532;6.426;2024-02-21T03:38:59;101878.38;;;7.81;100.00
63006;BME280;53704;52.532;6.426;2024-02-21T03:41:26;101882.50;;;7.74;100.00
63006;BME280;53704;52.532;6.426;2024-02-21T03:43:51;101870.59;;;7.78;100.00
63006;BME280;53704;52.532;6.426;2024-02-21T03:46:17;101877.63;;;7.68;100.00
63006;BME280;53704;52.532;6.426;2024-02-21T03:48:42;101879.84;;;7.74;100.00
63006;BME280;53704;52.532;6.426;2024-02-21T03:51:09;101878.88;;;7.75;100.00
63006;BME280;53704;52.532;6.426;2024-02-21T03:53:34;101876.78;;;7.78;100.00
63006;BME280;53704;52.532;6.426;2024-02-21T03:56:03;101874.59;;;7.72;100.00
63006;BME280;53704;52.532;6.426;2024-02-21T03:58:30;101876.66;;;7.69;100.00
63006;BME280;53704;52.532;6.426;2024-02-21T04:00:56;101869.84;;;7.76;100.00
63006;BME280;53704;52.532;6.426;2024-02-21T04:03:21;101867.28;;;7.74;100.00
63006;BME280;53704;52.532;6.426;2024-02-21T04:05:47;101866.91;;;7.79;100.00
63006;BME280;53704;52.532;6.426;2024-02-21T04:08:13;101862.41;;;7.79;100.00
63006;BME280;53704;52.532;6.426;2024-02-21T04:10:39;101864.13;;;7.92;100.00
63006;BME280;53704;52.532;6.426;2024-02-21T04:13:06;101861.91;;;7.86;100.00
63006;BME280;53704;52.532;6.426;2024-02-21T04:15:31;101860.34;;;7.83;100.00
63006;BME280;53704;52.532;6.426;2024-02-21T04:17:57;101860.84;;;7.88;100.00
63006;BME280;53704;52.532;6.426;2024-02-21T04:20:22;101859.88;;;7.89;100.00
63006;BME280;53704;52.532;6.426;2024-02-21T04:22:48;101849.50;;;7.85;100.00
63006;BME280;53704;52.532;6.426;2024-02-21T04:25:14;101856.31;;;7.77;100.00
63006;BME280;53704;52.532;6.426;2024-02-21T04:27:39;101852.06;;;7.86;100.00
63006;BME280;53704;52.532;6.426;2024-02-21T04:30:06;101852.44;;;7.82;100.00
63006;BME280;53704;52.532;6.426;2024-02-21T04:32:32;101859.63;;;7.92;100.00
63006;BME280;53704;52.532;6.426;2024-02-21T04:34:57;101859.28;;;7.97;100.00
63006;BME280;53704;52.532;6.426;2024-02-21T04:37:23;101856.72;;;7.95;100.00
63006;BME280;53704;52.532;6.426;2024-02-21T04:39:51;101848.16;;;8.02;100.00
63006;BME280;53704;52.532;6.426;2024-02-21T04:42:16;101843.31;;;7.95;100.00
63006;BME280;53704;52.532;6.426;2024-02-21T04:44:43;101845.84;;;8.08;100.00
63006;BME280;53704;52.532;6.426;2024-02-21T04:47:08;101837.44;;;8.02;100.00
63006;BME280;53704;52.532;6.426;2024-02-21T04:49:34;101835.75;;;8.01;100.00
63006;BME280;53704;52.532;6.426;2024-02-21T04:52:01;101834.88;;;7.89;100.00
63006;BME280;53704;52.532;6.426;2024-02-21T04:54:26;101831.94;;;7.92;100.00
63006;BME280;53704;52.532;6.426;2024-02-21T04:56:52;101830.75;;;7.85;100.00
63006;BME280;53704;52.532;6.426;2024-02-21T04:59:17;101835.75;;;7.78;100.00
63006;BME280;53704;52.532;6.426;2024-02-21T05:01:43;101831.59;;;7.85;100.00
63006;BME280;53704;52.532;6.426;2024-02-21T05:04:09;101823.91;;;7.81;100.00
63006;BME280;53704;52.532;6.426;2024-02-21T05:06:42;101818.31;;;7.84;100.00
63006;BME280;53704;52.532;6.426;2024-02-21T05:09:09;101814.78;;;7.83;100.00
63006;BME280;53704;52.532;6.426;2024-02-21T05:11:37;101810.63;;;7.79;100.00
63006;BME280;53704;52.532;6.426;2024-02-21T05:14:04;101815.88;;;7.81;100.00
63006;BME280;53704;52.532;6.426;2024-02-21T05:16:31;101810.75;;;7.77;100.00
63006;BME280;53704;52.532;6.426;2024-02-21T05:18:56;101811.34;;;7.81;100.00
63006;BME280;53704;52.532;6.426;2024-02-21T05:21:25;101811.09;;;7.73;100.00
63006;BME280;53704;52.532;6.426;2024-02-21T05:23:52;101815.25;;;7.77;100.00
63006;BME280;53704;52.532;6.426;2024-02-21T05:26:21;101818.66;;;7.90;100.00
63006;BME280;53704;52.532;6.426;2024-02-21T05:28:48;101818.19;;;7.85;100.00
63006;BME280;53704;52.532;6.426;2024-02-21T05:31:14;101810.13;;;7.85;100.00
63006;BME280;53704;52.532;6.426;2024-02-21T05:33:39;101806.25;;;7.78;100.00
63006;BME280;53704;52.532;6.426;2024-02-21T05:36:05;101795.91;;;7.85;100.00
63006;BME280;53704;52.532;6.426;2024-02-21T05:38:31;101787.50;;;7.78;100.00
63006;BME280;53704;52.532;6.426;2024-02-21T05:40:56;101782.63;;;7.72;100.00
63006;BME280;53704;52.532;6.426;2024-02-21T05:43:22;101781.38;;;7.87;100.00
63006;BME280;53704;52.532;6.426;2024-02-21T05:45:47;101787.00;;;7.95;100.00
63006;BME280;53704;52.532;6.426;2024-02-21T05:48:14;101781.50;;;7.86;100.00
63006;BME280;53704;52.532;6.426;2024-02-21T05:50:39;101776.63;;;7.79;100.00
63006;BME280;53704;52.532;6.426;2024-02-21T05:53:05;101780.53;;;7.75;100.00
63006;BME280;53704;52.532;6.426;2024-02-21T05:55:30;101781.84;;;7.81;100.00
63006;BME280;53704;52.532;6.426;2024-02-21T05:57:56;101778.22;;;7.82;100.00
63006;BME280;53704;52.532;6.426;2024-02-21T06:00:21;101764.56;;;7.85;100.00
63006;BME280;53704;52.532;6.426;2024-02-21T06:02:47;101766.66;;;7.82;100.00
63006;BME280;53704;52.532;6.426;2024-02-21T06:05:12;101762.97;;;7.83;100.00
63006;BME280;53704;52.532;6.426;2024-02-21T06:07:39;101754.34;;;7.79;100.00
63006;BME280;53704;52.532;6.426;2024-02-21T06:10:06;101754.69;;;7.74;100.00
63006;BME280;53704;52.532;6.426;2024-02-21T06:12:32;101742.88;;;7.77;100.00
63006;BME280;53704;52.532;6.426;2024-02-21T06:14:58;101738.50;;;7.65;100.00
63006;BME280;53704;52.532;6.426;2024-02-21T06:17:23;101743.13;;;7.74;100.00
63006;BME280;53704;52.532;6.426;2024-02-21T06:19:49;101743.97;;;7.74;100.00
63006;BME280;53704;52.532;6.426;2024-02-21T06:22:14;101738.97;;;7.81;100.00
63006;BME280;53704;52.532;6.426;2024-02-21T06:24:41;101740.69;;;7.82;100.00
63006;BME280;53704;52.532;6.426;2024-02-21T06:27:06;101736.31;;;7.70;100.00
63006;BME280;53704;52.532;6.426;2024-02-21T06:29:33;101742.28;;;7.73;100.00
63006;BME280;53704;52.532;6.426;2024-02-21T06:31:59;101740.69;;;7.82;100.00
63006;BME280;53704;52.532;6.426;2024-02-21T06:34:24;101734.63;;;7.69;100.00
63006;BME280;53704;52.532;6.426;2024-02-21T06:36:50;101734.13;;;7.75;100.00
63006;BME280;53704;52.532;6.426;2024-02-21T06:39:16;101737.41;;;7.78;100.00
63006;BME280;53704;52.532;6.426;2024-02-21T06:41:42;101737.91;;;7.72;100.00
63006;BME280;53704;52.532;6.426;2024-02-21T06:44:13;101740.69;;;7.82;100.00
63006;BME280;53704;52.532;6.426;2024-02-21T06:46:39;101739.97;;;7.69;100.00
63006;BME280;53704;52.532;6.426;2024-02-21T06:49:04;101745.81;;;7.63;100.00
63006;BME280;53704;52.532;6.426;2024-02-21T06:51:31;101741.56;;;7.60;100.00
63006;BME280;53704;52.532;6.426;2024-02-21T06:53:57;101750.19;;;7.52;100.00
63006;BME280;53704;52.532;6.426;2024-02-21T06:56:23;101746.44;;;7.55;100.00
63006;BME280;53704;52.532;6.426;2024-02-21T06:58:56;101746.91;;;7.60;100.00
63006;BME280;53704;52.532;6.426;2024-02-21T07:01:22;101744.81;;;7.64;100.00
63006;BME280;53704;52.532;6.426;2024-02-21T07:03:47;101739.00;;;7.58;100.00
63006;BME280;53704;52.532;6.426;2024-02-21T07:06:13;101734.88;;;7.66;100.00
63006;BME280;53704;52.532;6.426;2024-02-21T07:08:38;101735.34;;;7.71;100.00
63006;BME280;53704;52.532;6.426;2024-02-21T07:11:05;101744.47;;;7.68;100.00
63006;BME280;53704;52.532;6.426;2024-02-21T07:13:32;101740.47;;;7.63;100.00
63006;BME280;53704;52.532;6.426;2024-02-21T07:15:57;101737.03;;;7.60;100.00
63006;BME280;53704;52.532;6.426;2024-02-21T07:18:24;101738.88;;;7.60;100.00
63006;BME280;53704;52.532;6.426;2024-02-21T07:20:53;101737.53;;;7.66;100.00
63006;BME280;53704;52.532;6.426;2024-02-21T07:23:18;101734.25;;;7.73;100.00
63006;BME280;53704;52.532;6.426;2024-02-21T07:25:44;101728.28;;;7.58;100.00
63006;BME280;53704;52.532;6.426;2024-02-21T07:28:10;101725.69;;;7.68;100.00
63006;BME280;53704;52.532;6.426;2024-02-21T07:30:35;101716.84;;;7.56;100.00
63006;BME280;53704;52.532;6.426;2024-02-21T07:33:02;101722.66;;;7.61;100.00
63006;BME280;53704;52.532;6.426;2024-02-21T07:35:28;101722.19;;;7.68;100.00
63006;BME280;53704;52.532;6.426;2024-02-21T07:37:53;101719.75;;;7.65;100.00
63006;BME280;53704;52.532;6.426;2024-02-21T07:40:19;101708.19;;;7.53;100.00
63006;BME280;53704;52.532;6.426;2024-02-21T07:42:44;101713.91;;;7.59;100.00
63006;BME280;53704;52.532;6.426;2024-02-21T07:45:10;101711.94;;;7.61;100.00
63006;BME280;53704;52.532;6.426;2024-02-21T07:47:36;101704.63;;;7.64;100.00
63006;BME280;53704;52.532;6.426;2024-02-21T07:50:03;101703.06;;;7.72;100.00
63006;BME280;53704;52.532;6.426;2024-02-21T07:52:29;101698.19;;;7.66;100.00
63006;BME280;53704;52.532;6.426;2024-02-21T07:54:55;101695.72;;;7.74;100.00
63006;BME280;53704;52.532;6.426;2024-02-21T07:57:22;101693.41;;;7.70;100.00
63006;BME280;53704;52.532;6.426;2024-02-21T07:59:48;101698.06;;;7.68;100.00
63006;BME280;53704;52.532;6.426;2024-02-21T08:02:14;101684.69;;;7.56;100.00
63006;BME280;53704;52.532;6.426;2024-02-21T08:04:40;101683.72;;;7.57;100.00
63006;BME280;53704;52.532;6.426;2024-02-21T08:07:05;101674.19;;;7.65;100.00
63006;BME280;53704;52.532;6.426;2024-02-21T08:09:39;101673.34;;;7.64;100.00
63006;BME280;53704;52.532;6.426;2024-02-21T08:12:05;101672.47;;;7.75;100.00
63006;BME280;53704;52.532;6.426;2024-02-21T08:14:31;101662.75;;;7.63;100.00
63006;BME280;53704;52.532;6.426;2024-02-21T08:16:57;101658.19;;;7.86;100.00
63006;BME280;53704;52.532;6.426;2024-02-21T08:19:22;101658.44;;;7.71;100.00
63006;BME280;53704;52.532;6.426;2024-02-21T08:21:48;101645.16;;;7.70;100.00
63006;BME280;53704;52.532;6.426;2024-02-21T08:24:14;101650.91;;;7.76;100.00
63006;BME280;53704;52.532;6.426;2024-02-21T08:26:43;101650.13;;;7.86;100.00
63006;BME280;53704;52.532;6.426;2024-02-21T08:29:12;101647.31;;;7.87;100.00
63006;BME280;53704;52.532;6.426;2024-02-21T08:31:38;101652.44;;;7.90;100.00
63006;BME280;53704;52.532;6.426;2024-02-21T08:34:04;101652.19;;;7.93;100.00
63006;BME280;53704;52.532;6.426;2024-02-21T08:36:33;101654.66;;;7.85;100.00
63006;BME280;53704;52.532;6.426;2024-02-21T08:39:00;101651.94;;;7.96;100.00
63006;BME280;53704;52.532;6.426;2024-02-21T08:41:26;101644.09;;;8.05;100.00
63006;BME280;53704;52.532;6.426;2024-02-21T08:43:52;101641.88;;;8.21;100.00
63006;BME280;53704;52.532;6.426;2024-02-21T08:46:19;101629.47;;;8.09;100.00
63006;BME280;53704;52.532;6.426;2024-02-21T08:48:46;101632.41;;;8.06;100.00
63006;BME280;53704;52.532;6.426;2024-02-21T08:51:12;101619.97;;;8.05;100.00
63006;BME280;53704;52.532;6.426;2024-02-21T08:53:37;101621.75;;;8.15;100.00
63006;BME280;53704;52.532;6.426;2024-02-21T08:56:04;101621.00;;;8.25;100.00
63006;BME280;53704;52.532;6.426;2024-02-21T08:58:29;101615.16;;;8.20;100.00
63006;BME280;53704;52.532;6.426;2024-02-21T09:00:55;101610.56;;;8.10;100.00
63006;BME280;53704;52.532;6.426;2024-02-21T09:03:21;101604.38;;;8.10;100.00
63006;BME280;53704;52.532;6.426;2024-02-21T09:05:47;101606.59;;;8.26;100.00
63006;BME280;53704;52.532;6.426;2024-02-21T09:08:13;101603.16;;;8.35;100.00
63006;BME280;53704;52.532;6.426;2024-02-21T09:10:41;101594.97;;;8.37;100.00
63006;BME280;53704;52.532;6.426;2024-02-21T09:13:10;101587.38;;;8.42;100.00
63006;BME280;53704;52.532;6.426;2024-02-21T09:15:35;101591.03;;;8.41;100.00
63006;BME280;53704;52.532;6.426;2024-02-21T09:18:01;101586.88;;;8.48;100.00
63006;BME280;53704;52.532;6.426;2024-02-21T09:20:28;101588.09;;;8.44;100.00
63006;BME280;53704;52.532;6.426;2024-02-21T09:22:55;101590.97;;;8.31;100.00
63006;BME280;53704;52.532;6.426;2024-02-21T09:25:20;101588.22;;;8.42;100.00
63006;BME280;53704;52.532;6.426;2024-02-21T09:27:46;101593.72;;;8.41;100.00
63006;BME280;53704;52.532;6.426;2024-02-21T09:30:12;101591.63;;;8.44;100.00
63006;BME280;53704;52.532;6.426;2024-02-21T09:32:37;101588.09;;;8.44;100.00
63006;BME280;53704;52.532;6.426;2024-02-21T09:35:05;101580.06;;;8.44;100.00
63006;BME280;53704;52.532;6.426;2024-02-21T09:37:31;101581.28;;;8.40;100.00
63006;BME280;53704;52.532;6.426;2024-02-21T09:39:57;101583.63;;;8.33;100.00
63006;BME280;53704;52.532;6.426;2024-02-21T09:42:27;101578.38;;;8.31;100.00
63006;BME280;53704;52.532;6.426;2024-02-21T09:44:58;101578.47;;;8.41;100.00
63006;BME280;53704;52.532;6.426;2024-02-21T09:47:43;101570.25;;;8.43;100.00
63006;BME280;53704;52.532;6.426;2024-02-21T09:50:14;101563.19;;;8.53;100.00
63006;BME280;53704;52.532;6.426;2024-02-21T09:52:40;101558.59;;;8.44;100.00
63006;BME280;53704;52.532;6.426;2024-02-21T09:55:07;101564.66;;;8.46;100.00
63006;BME280;53704;52.532;6.426;2024-02-21T09:57:37;101557.63;;;8.45;100.00
63006;BME280;53704;52.532;6.426;2024-02-21T10:00:06;101555.00;;;8.55;100.00
63006;BME280;53704;52.532;6.426;2024-02-21T10:02:34;101548.97;;;8.62;100.00
63006;BME280;53704;52.532;6.426;2024-02-21T10:05:00;101541.13;;;8.49;100.00
63006;BME280;53704;52.532;6.426;2024-02-21T10:07:25;101550.84;;;8.72;100.00
63006;BME280;53704;52.532;6.426;2024-02-21T10:10:01;101534.97;;;8.59;100.00
63006;BME280;53704;52.532;6.426;2024-02-21T10:12:27;101529.47;;;8.60;100.00
63006;BME280;53704;52.532;6.426;2024-02-21T10:15:03;101526.78;;;8.60;100.00
63006;BME280;53704;52.532;6.426;2024-02-21T10:17:30;101512.66;;;8.68;100.00
63006;BME280;53704;52.532;6.426;2024-02-21T10:20:02;101505.66;;;8.77;100.00
63006;BME280;53704;52.532;6.426;2024-02-21T10:22:32;101494.34;;;8.73;100.00
63006;BME280;53704;52.532;6.426;2024-02-21T10:25:10;101491.31;;;8.66;100.00
63006;BME280;53704;52.532;6.426;2024-02-21T10:27:37;101488.56;;;8.78;100.00
63006;BME280;53704;52.532;6.426;2024-02-21T10:30:07;101484.75;;;8.80;100.00
63006;BME280;53704;52.532;6.426;2024-02-21T10:32:33;101472.41;;;8.68;100.00
63006;BME280;53704;52.532;6.426;2024-02-21T10:35:02;101474.75;;;8.82;100.00
63006;BME280;53704;52.532;6.426;2024-02-21T10:37:32;101474.00;;;8.80;100.00
63006;BME280;53704;52.532;6.426;2024-02-21T10:39:57;101469.31;;;8.73;100.00
63006;BME280;53704;52.532;6.426;2024-02-21T10:42:28;101464.13;;;8.81;100.00
63006;BME280;53704;52.532;6.426;2024-02-21T10:45:00;101451.38;;;8.73;100.00
63006;BME280;53704;52.532;6.426;2024-02-21T10:47:31;101453.41;;;8.81;100.00
63006;BME280;53704;52.532;6.426;2024-02-21T10:50:07;101444.34;;;8.92;100.00
63006;BME280;53704;52.532;6.426;2024-02-21T10:55:20;101438.16;;;8.91;100.00
63006;BME280;53704;52.532;6.426;2024-02-21T10:57:49;101425.59;;;9.01;100.00
63006;BME280;53704;52.532;6.426;2024-02-21T11:00:17;101428.16;;;9.03;100.00
63006;BME280;53704;52.532;6.426;2024-02-21T11:02:43;101435.06;;;9.05;100.00
63006;BME280;53704;52.532;6.426;2024-02-21T11:05:09;101431.81;;;9.02;100.00
63006;BME280;53704;52.532;6.426;2024-02-21T11:07:38;101424.88;;;9.09;100.00
63006;BME280;53704;52.532;6.426;2024-02-21T11:10:05;101416.53;;;9.02;100.00
63006;BME280;53704;52.532;6.426;2024-02-21T11:12:33;101417.25;;;9.04;100.00
63006;BME280;53704;52.532;6.426;2024-02-21T11:15:05;101402.56;;;9.09;100.00
63006;BME280;53704;52.532;6.426;2024-02-21T11:17:31;101393.38;;;9.01;100.00
63006;BME280;53704;52.532;6.426;2024-02-21T11:19:57;101390.81;;;9.10;100.00
63006;BME280;53704;52.532;6.426;2024-02-21T11:22:24;101388.69;;;9.03;100.00
63006;BME280;53704;52.532;6.426;2024-02-21T11:24:54;101384.72;;;9.08;100.00
63006;BME280;53704;52.532;6.426;2024-02-21T11:27:23;101376.97;;;9.04;100.00
63006;BME280;53704;52.532;6.426;2024-02-21T11:29:56;101374.56;;;9.21;100.00
63006;BME280;53704;52.532;6.426;2024-02-21T11:32:21;101370.59;;;9.05;100.00
63006;BME280;53704;52.532;6.426;2024-02-21T11:37:19;101367.34;;;8.92;100.00
63006;BME280;53704;52.532;6.426;2024-02-21T11:39:44;101348.41;;;8.94;100.00
63006;BME280;53704;52.532;6.426;2024-02-21T11:42:10;101343.88;;;8.84;100.00
63006;BME280;53704;52.532;6.426;2024-02-21T11:44:38;101327.50;;;8.97;100.00
63006;BME280;53704;52.532;6.426;2024-02-21T11:47:05;101319.44;;;9.07;100.00
63006;BME280;53704;52.532;6.426;2024-02-21T11:49:31;101313.09;;;8.98;100.00
63006;BME280;53704;52.532;6.426;2024-02-21T11:52:01;101286.66;;;9.03;100.00
63006;BME280;53704;52.532;6.426;2024-02-21T11:54:29;101273.06;;;9.15;100.00
63006;BME280;53704;52.532;6.426;2024-02-21T11:56:55;101261.03;;;9.09;100.00
63006;BME280;53704;52.532;6.426;2024-02-21T11:59:21;101257.78;;;9.05;100.00
63006;BME280;53704;52.532;6.426;2024-02-21T12:01:48;101252.69;;;9.12;100.00
63006;BME280;53704;52.532;6.426;2024-02-21T12:04:15;101254.41;;;9.13;100.00
63006;BME280;53704;52.532;6.426;2024-02-21T12:06:45;101245.22;;;8.96;100.00
63006;BME280;53704;52.532;6.426;2024-02-21T12:09:14;101219.09;;;8.98;100.00
63006;BME280;53704;52.532;6.426;2024-02-21T12:11:40;101232.09;;;9.03;100.00
63006;BME280;53704;52.532;6.426;2024-02-21T12:14:07;101255.13;;;9.05;100.00
63006;BME280;53704;52.532;6.426;2024-02-21T12:16:35;101238.31;;;9.03;100.00
63006;BME280;53704;52.532;6.426;2024-02-21T12:19:04;101253.28;;;8.96;100.00
63006;BME280;53704;52.532;6.426;2024-02-21T12:21:30;101255.41;;;8.83;100.00
63006;BME280;53704;52.532;6.426;2024-02-21T12:23:58;101245.66;;;8.82;100.00
63006;BME280;53704;52.532;6.426;2024-02-21T12:26:25;101248.22;;;8.83;100.00
63006;BME280;53704;52.532;6.426;2024-02-21T12:28:50;101235.78;;;8.82;100.00
63006;BME280;53704;52.532;6.426;2024-02-21T12:31:17;101224.19;;;8.82;100.00
63006;BME280;53704;52.532;6.426;2024-02-21T12:33:43;101214.88;;;8.86;100.00
63006;BME280;53704;52.532;6.426;2024-02-21T12:36:12;101213.56;;;8.90;100.00
63006;BME280;53704;52.532;6.426;2024-02-21T12:38:37;101234.63;;;8.95;100.00
63006;BME280;53704;52.532;6.426;2024-02-21T12:41:03;101234.50;;;8.86;100.00
63006;BME280;53704;52.532;6.426;2024-02-21T12:43:29;101228.84;;;8.80;100.00
63006;BME280;53704;52.532;6.426;2024-02-21T12:45:55;101215.72;;;8.77;100.00
63006;BME280;53704;52.532;6.426;2024-02-21T12:48:21;101205.25;;;8.74;100.00
63006;BME280;53704;52.532;6.426;2024-02-21T12:50:49;101189.84;;;8.76;100.00
63006;BME280;53704;52.532;6.426;2024-02-21T12:53:19;101183.94;;;8.72;100.00
63006;BME280;53704;52.532;6.426;2024-02-21T12:55:48;101166.97;;;8.81;100.00